sensor_id;sensor_type;location;lat;lon;timestamp;P1;durP1;ratioP1;P2;durP2;ratioP2
13720;SDS011;6932;51.438;5.470;2022-11-22T00:00:20;4.30;;;2.37;;
13720;SDS011;6932;51.438;5.470;2022-11-22T00:02:50;6.23;;;2.40;;
13720;SDS011;6932;51.438;5.470;2022-11-22T00:05:16;5.30;;;2.50;;
13720;SDS011;6932;51.438;5.470;2022-11-22T00:07:45;4.03;;;2.47;;
13720;SDS011;6932;51.438;5.470;2022-11-22T00:10:11;5.50;;;2.30;;
13720;SDS011;6932;51.438;5.470;2022-11-22T00:12:42;5.40;;;2.63;;
13720;SDS011;6932;51.438;5.470;2022-11-22T00:15:08;4.13;;;2.20;;
13720;SDS011;6932;51.438;5.470;2022-11-22T00:17:37;4.97;;;2.33;;
13720;SDS011;6932;51.438;5.470;2022-11-22T00:20:04;4.23;;;2.40;;
13720;SDS011;6932;51.438;5.470;2022-11-22T00:22:32;3.83;;;2.20;;
13720;SDS011;6932;51.438;5.470;2022-11-22T00:25:01;3.73;;;2.30;;
13720;SDS011;6932;51.438;5.470;2022-11-22T00:27:27;4.43;;;2.13;;
13720;SDS011;6932;51.438;5.470;2022-11-22T00:29:53;5.83;;;2.17;;
13720;SDS011;6932;51.438;5.470;2022-11-22T00:32:19;4.83;;;2.10;;
13720;SDS011;6932;51.438;5.470;2022-11-22T00:34:45;5.20;;;2.27;;
13720;SDS011;6932;51.438;5.470;2022-11-22T00:37:15;5.70;;;2.40;;
13720;SDS011;6932;51.438;5.470;2022-11-22T00:39:44;4.23;;;2.10;;
13720;SDS011;6932;51.438;5.470;2022-11-22T00:42:10;2.80;;;2.03;;
13720;SDS011;6932;51.438;5.470;2022-11-22T00:44:36;4.83;;;2.30;;
13720;SDS011;6932;51.438;5.470;2022-11-22T00:47:02;2.90;;;2.00;;
13720;SDS011;6932;51.438;5.470;2022-11-22T00:49:28;4.10;;;2.30;;
13720;SDS011;6932;51.438;5.470;2022-11-22T00:51:54;8.00;;;2.43;;
13720;SDS011;6932;51.438;5.470;2022-11-22T00:54:22;4.80;;;2.07;;
13720;SDS011;6932;51.438;5.470;2022-11-22T00:56:47;3.97;;;2.27;;
13720;SDS011;6932;51.438;5.470;2022-11-22T00:59:13;4.17;;;2.03;;
13720;SDS011;6932;51.438;5.470;2022-11-22T01:01:39;5.33;;;2.20;;
13720;SDS011;6932;51.438;5.470;2022-11-22T01:04:05;3.67;;;1.90;;
13720;SDS011;6932;51.438;5.470;2022-11-22T01:06:31;5.20;;;2.00;;
13720;SDS011;6932;51.438;5.470;2022-11-22T01:08:57;3.40;;;1.90;;
13720;SDS011;6932;51.438;5.470;2022-11-22T01:11:23;4.53;;;2.00;;
13720;SDS011;6932;51.438;5.470;2022-11-22T01:13:49;6.47;;;2.30;;
13720;SDS011;6932;51.438;5.470;2022-11-22T01:16:15;4.53;;;2.10;;
13720;SDS011;6932;51.438;5.470;2022-11-22T01:18:41;5.93;;;2.13;;
13720;SDS011;6932;51.438;5.470;2022-11-22T01:21:07;4.90;;;2.20;;
13720;SDS011;6932;51.438;5.470;2022-11-22T01:23:33;6.17;;;2.03;;
13720;SDS011;6932;51.438;5.470;2022-11-22T01:26:02;5.10;;;1.90;;
13720;SDS011;6932;51.438;5.470;2022-11-22T01:28:30;6.03;;;1.97;;
13720;SDS011;6932;51.438;5.470;2022-11-22T01:30:56;3.23;;;1.63;;
13720;SDS011;6932;51.438;5.470;2022-11-22T01:33:22;5.20;;;2.00;;
13720;SDS011;6932;51.438;5.470;2022-11-22T01:35:49;4.77;;;2.10;;
13720;SDS011;6932;51.438;5.470;2022-11-22T01:38:16;4.77;;;2.10;;
13720;SDS011;6932;51.438;5.470;2022-11-22T01:40:44;5.30;;;2.00;;
13720;SDS011;6932;51.438;5.470;2022-11-22T01:43:13;6.20;;;2.20;;
13720;SDS011;6932;51.438;5.470;2022-11-22T01:45:49;5.47;;;2.10;;
13720;SDS011;6932;51.438;5.470;2022-11-22T01:51:33;6.63;;;2.13;;
13720;SDS011;6932;51.438;5.470;2022-11-22T01:54:06;6.63;;;2.30;;
13720;SDS011;6932;51.438;5.470;2022-11-22T01:56:40;7.40;;;2.30;;
13720;SDS011;6932;51.438;5.470;2022-11-22T01:59:11;6.43;;;2.23;;
13720;SDS011;6932;51.438;5.470;2022-11-22T02:01:41;7.20;;;2.30;;
13720;SDS011;6932;51.438;5.470;2022-11-22T02:04:08;8.10;;;2.30;;
13720;SDS011;6932;51.438;5.470;2022-11-22T02:06:40;5.57;;;2.00;;
13720;SDS011;6932;51.438;5.470;2022-11-22T02:09:11;7.20;;;2.40;;
13720;SDS011;6932;51.438;5.470;2022-11-22T02:11:38;4.03;;;1.83;;
13720;SDS011;6932;51.438;5.470;2022-11-22T02:14:12;7.50;;;2.40;;
13720;SDS011;6932;51.438;5.470;2022-11-22T02:16:42;7.27;;;2.10;;
13720;SDS011;6932;51.438;5.470;2022-11-22T02:19:13;9.70;;;2.30;;
13720;SDS011;6932;51.438;5.470;2022-11-22T02:21:53;7.40;;;2.37;;
13720;SDS011;6932;51.438;5.470;2022-11-22T02:24:25;6.83;;;2.10;;
13720;SDS011;6932;51.438;5.470;2022-11-22T02:27:06;6.93;;;2.20;;
13720;SDS011;6932;51.438;5.470;2022-11-22T02:29:32;6.83;;;2.30;;
13720;SDS011;6932;51.438;5.470;2022-11-22T02:32:00;6.27;;;2.10;;
13720;SDS011;6932;51.438;5.470;2022-11-22T02:34:26;6.97;;;2.10;;
13720;SDS011;6932;51.438;5.470;2022-11-22T02:36:52;9.67;;;2.20;;
13720;SDS011;6932;51.438;5.470;2022-11-22T02:39:19;6.67;;;2.07;;
13720;SDS011;6932;51.438;5.470;2022-11-22T02:41:52;9.63;;;2.40;;
13720;SDS011;6932;51.438;5.470;2022-11-22T02:44:21;6.90;;;2.20;;
13720;SDS011;6932;51.438;5.470;2022-11-22T02:46:49;7.97;;;2.30;;
13720;SDS011;6932;51.438;5.470;2022-11-22T02:49:18;10.07;;;2.17;;
13720;SDS011;6932;51.438;5.470;2022-11-22T02:51:47;6.87;;;2.07;;
13720;SDS011;6932;51.438;5.470;2022-11-22T02:54:14;5.63;;;1.80;;
13720;SDS011;6932;51.438;5.470;2022-11-22T02:56:40;9.70;;;1.90;;
13720;SDS011;6932;51.438;5.470;2022-11-22T02:59:06;6.97;;;2.10;;
13720;SDS011;6932;51.438;5.470;2022-11-22T03:01:32;8.93;;;2.40;;
13720;SDS011;6932;51.438;5.470;2022-11-22T03:03:58;8.33;;;2.43;;
13720;SDS011;6932;51.438;5.470;2022-11-22T03:06:24;7.73;;;2.40;;
13720;SDS011;6932;51.438;5.470;2022-11-22T03:08:50;5.53;;;1.90;;
13720;SDS011;6932;51.438;5.470;2022-11-22T03:11:16;6.80;;;2.30;;
13720;SDS011;6932;51.438;5.470;2022-11-22T03:13:41;7.50;;;2.43;;
13720;SDS011;6932;51.438;5.470;2022-11-22T03:16:07;9.70;;;2.27;;
13720;SDS011;6932;51.438;5.470;2022-11-22T03:18:33;8.20;;;2.17;;
13720;SDS011;6932;51.438;5.470;2022-11-22T03:21:04;6.03;;;2.10;;
13720;SDS011;6932;51.438;5.470;2022-11-22T03:23:34;7.13;;;2.17;;
13720;SDS011;6932;51.438;5.470;2022-11-22T03:26:05;7.77;;;2.17;;
13720;SDS011;6932;51.438;5.470;2022-11-22T03:28:33;6.97;;;2.10;;
13720;SDS011;6932;51.438;5.470;2022-11-22T03:30:59;6.57;;;1.97;;
13720;SDS011;6932;51.438;5.470;2022-11-22T03:33:25;6.53;;;2.20;;
13720;SDS011;6932;51.438;5.470;2022-11-22T03:35:54;6.43;;;2.00;;
13720;SDS011;6932;51.438;5.470;2022-11-22T03:38:22;6.43;;;1.90;;
13720;SDS011;6932;51.438;5.470;2022-11-22T03:40:48;8.17;;;2.20;;
13720;SDS011;6932;51.438;5.470;2022-11-22T03:43:14;5.93;;;1.90;;
13720;SDS011;6932;51.438;5.470;2022-11-22T03:45:43;6.17;;;2.20;;
13720;SDS011;6932;51.438;5.470;2022-11-22T03:48:10;6.80;;;2.00;;
13720;SDS011;6932;51.438;5.470;2022-11-22T03:50:36;8.00;;;1.70;;
13720;SDS011;6932;51.438;5.470;2022-11-22T03:53:02;6.70;;;2.00;;
13720;SDS011;6932;51.438;5.470;2022-11-22T03:55:28;6.63;;;1.80;;
13720;SDS011;6932;51.438;5.470;2022-11-22T03:57:54;6.37;;;2.00;;
13720;SDS011;6932;51.438;5.470;2022-11-22T04:00:20;6.53;;;2.30;;
13720;SDS011;6932;51.438;5.470;2022-11-22T04:02:45;6.37;;;2.10;;
13720;SDS011;6932;51.438;5.470;2022-11-22T04:05:11;8.37;;;2.23;;
13720;SDS011;6932;51.438;5.470;2022-11-22T04:07:37;4.57;;;1.80;;
13720;SDS011;6932;51.438;5.470;2022-11-22T04:10:03;5.97;;;1.87;;
13720;SDS011;6932;51.438;5.470;2022-11-22T04:12:30;6.63;;;2.10;;
13720;SDS011;6932;51.438;5.470;2022-11-22T04:14:56;7.10;;;1.87;;
13720;SDS011;6932;51.438;5.470;2022-11-22T04:17:40;8.13;;;2.30;;
13720;SDS011;6932;51.438;5.470;2022-11-22T04:20:11;5.93;;;1.97;;
13720;SDS011;6932;51.438;5.470;2022-11-22T04:23:05;5.70;;;1.80;;
13720;SDS011;6932;51.438;5.470;2022-11-22T04:25:35;6.77;;;2.03;;
13720;SDS011;6932;51.438;5.470;2022-11-22T04:28:04;6.87;;;2.13;;
13720;SDS011;6932;51.438;5.470;2022-11-22T04:30:32;7.97;;;2.17;;
13720;SDS011;6932;51.438;5.470;2022-11-22T04:33:17;4.33;;;1.70;;
13720;SDS011;6932;51.438;5.470;2022-11-22T04:35:43;5.70;;;1.90;;
13720;SDS011;6932;51.438;5.470;2022-11-22T04:38:10;6.10;;;2.10;;
13720;SDS011;6932;51.438;5.470;2022-11-22T04:40:37;6.87;;;1.80;;
13720;SDS011;6932;51.438;5.470;2022-11-22T04:43:04;4.23;;;1.50;;
13720;SDS011;6932;51.438;5.470;2022-11-22T04:45:49;7.17;;;2.00;;
13720;SDS011;6932;51.438;5.470;2022-11-22T04:48:15;4.93;;;1.90;;
13720;SDS011;6932;51.438;5.470;2022-11-22T04:50:42;7.50;;;1.90;;
13720;SDS011;6932;51.438;5.470;2022-11-22T04:53:27;5.97;;;1.87;;
13720;SDS011;6932;51.438;5.470;2022-11-22T04:55:54;8.27;;;2.00;;
13720;SDS011;6932;51.438;5.470;2022-11-22T04:58:21;8.63;;;2.10;;
13720;SDS011;6932;51.438;5.470;2022-11-22T05:00:47;8.60;;;1.73;;
13720;SDS011;6932;51.438;5.470;2022-11-22T05:03:13;6.43;;;2.23;;
13720;SDS011;6932;51.438;5.470;2022-11-22T05:05:41;6.43;;;1.90;;
13720;SDS011;6932;51.438;5.470;2022-11-22T05:08:08;3.73;;;1.60;;
13720;SDS011;6932;51.438;5.470;2022-11-22T05:10:35;5.23;;;1.63;;
13720;SDS011;6932;51.438;5.470;2022-11-22T05:13:21;5.40;;;1.87;;
13720;SDS011;6932;51.438;5.470;2022-11-22T05:15:54;5.20;;;1.80;;
13720;SDS011;6932;51.438;5.470;2022-11-22T05:18:21;6.07;;;2.03;;
13720;SDS011;6932;51.438;5.470;2022-11-22T05:20:48;5.63;;;1.80;;
13720;SDS011;6932;51.438;5.470;2022-11-22T05:23:14;6.07;;;1.60;;
13720;SDS011;6932;51.438;5.470;2022-11-22T05:26:00;6.03;;;1.70;;
13720;SDS011;6932;51.438;5.470;2022-11-22T05:28:29;6.07;;;1.70;;
13720;SDS011;6932;51.438;5.470;2022-11-22T05:30:58;6.87;;;1.60;;
13720;SDS011;6932;51.438;5.470;2022-11-22T05:33:29;7.60;;;1.90;;
13720;SDS011;6932;51.438;5.470;2022-11-22T05:35:55;6.90;;;1.73;;
13720;SDS011;6932;51.438;5.470;2022-11-22T05:38:24;6.97;;;1.87;;
13720;SDS011;6932;51.438;5.470;2022-11-22T05:40:50;6.33;;;1.70;;
13720;SDS011;6932;51.438;5.470;2022-11-22T05:43:15;5.33;;;1.67;;
13720;SDS011;6932;51.438;5.470;2022-11-22T05:45:41;5.00;;;1.70;;
13720;SDS011;6932;51.438;5.470;2022-11-22T05:48:07;4.80;;;1.80;;
13720;SDS011;6932;51.438;5.470;2022-11-22T05:50:33;5.93;;;1.70;;
13720;SDS011;6932;51.438;5.470;2022-11-22T05:52:59;4.10;;;1.67;;
13720;SDS011;6932;51.438;5.470;2022-11-22T05:55:27;6.43;;;1.80;;
13720;SDS011;6932;51.438;5.470;2022-11-22T05:57:54;7.23;;;1.80;;
13720;SDS011;6932;51.438;5.470;2022-11-22T06:00:25;7.93;;;1.83;;
13720;SDS011;6932;51.438;5.470;2022-11-22T06:02:59;7.03;;;2.07;;
13720;SDS011;6932;51.438;5.470;2022-11-22T06:05:27;5.40;;;1.83;;
13720;SDS011;6932;51.438;5.470;2022-11-22T06:07:56;4.97;;;1.90;;
13720;SDS011;6932;51.438;5.470;2022-11-22T06:10:24;6.27;;;1.80;;
13720;SDS011;6932;51.438;5.470;2022-11-22T06:12:50;7.20;;;2.10;;
13720;SDS011;6932;51.438;5.470;2022-11-22T06:15:16;5.93;;;1.93;;
13720;SDS011;6932;51.438;5.470;2022-11-22T06:17:42;5.53;;;1.90;;
13720;SDS011;6932;51.438;5.470;2022-11-22T06:20:08;5.03;;;1.97;;
13720;SDS011;6932;51.438;5.470;2022-11-22T06:22:40;5.13;;;1.70;;
13720;SDS011;6932;51.438;5.470;2022-11-22T06:25:06;5.17;;;1.73;;
13720;SDS011;6932;51.438;5.470;2022-11-22T06:27:32;6.47;;;2.17;;
13720;SDS011;6932;51.438;5.470;2022-11-22T06:29:58;6.50;;;2.00;;
13720;SDS011;6932;51.438;5.470;2022-11-22T06:32:24;4.97;;;1.90;;
13720;SDS011;6932;51.438;5.470;2022-11-22T06:34:49;5.83;;;1.70;;
13720;SDS011;6932;51.438;5.470;2022-11-22T06:37:15;7.40;;;2.00;;
13720;SDS011;6932;51.438;5.470;2022-11-22T06:39:41;4.30;;;1.57;;
13720;SDS011;6932;51.438;5.470;2022-11-22T06:42:07;6.40;;;1.80;;
13720;SDS011;6932;51.438;5.470;2022-11-22T06:44:32;9.27;;;2.13;;
13720;SDS011;6932;51.438;5.470;2022-11-22T06:46:58;5.80;;;1.90;;
13720;SDS011;6932;51.438;5.470;2022-11-22T06:49:24;6.43;;;1.67;;
13720;SDS011;6932;51.438;5.470;2022-11-22T06:51:50;5.73;;;2.23;;
13720;SDS011;6932;51.438;5.470;2022-11-22T06:54:16;8.43;;;2.20;;
13720;SDS011;6932;51.438;5.470;2022-11-22T06:56:41;4.10;;;1.70;;
13720;SDS011;6932;51.438;5.470;2022-11-22T06:59:07;4.83;;;1.87;;
13720;SDS011;6932;51.438;5.470;2022-11-22T07:01:34;5.13;;;2.00;;
13720;SDS011;6932;51.438;5.470;2022-11-22T07:04:01;4.33;;;1.57;;
13720;SDS011;6932;51.438;5.470;2022-11-22T07:06:33;4.37;;;1.60;;
13720;SDS011;6932;51.438;5.470;2022-11-22T07:14:13;5.10;;;1.40;;
13720;SDS011;6932;51.438;5.470;2022-11-22T07:16:39;5.47;;;1.90;;
13720;SDS011;6932;51.438;5.470;2022-11-22T07:19:05;3.77;;;1.77;;
13720;SDS011;6932;51.438;5.470;2022-11-22T07:21:31;4.63;;;1.67;;
13720;SDS011;6932;51.438;5.470;2022-11-22T07:23:58;5.70;;;1.73;;
13720;SDS011;6932;51.438;5.470;2022-11-22T07:26:25;5.20;;;1.90;;
13720;SDS011;6932;51.438;5.470;2022-11-22T07:28:52;4.43;;;1.50;;
13720;SDS011;6932;51.438;5.470;2022-11-22T07:31:18;7.57;;;2.00;;
13720;SDS011;6932;51.438;5.470;2022-11-22T07:33:45;7.73;;;2.10;;
13720;SDS011;6932;51.438;5.470;2022-11-22T07:36:12;6.80;;;2.00;;
13720;SDS011;6932;51.438;5.470;2022-11-22T07:38:42;6.70;;;1.90;;
13720;SDS011;6932;51.438;5.470;2022-11-22T07:41:13;3.50;;;1.60;;
13720;SDS011;6932;51.438;5.470;2022-11-22T07:43:41;7.13;;;2.20;;
13720;SDS011;6932;51.438;5.470;2022-11-22T07:48:54;9.07;;;2.03;;
13720;SDS011;6932;51.438;5.470;2022-11-22T07:51:24;4.93;;;1.63;;
13720;SDS011;6932;51.438;5.470;2022-11-22T07:53:51;6.03;;;1.77;;
13720;SDS011;6932;51.438;5.470;2022-11-22T07:56:21;5.47;;;1.70;;
13720;SDS011;6932;51.438;5.470;2022-11-22T07:58:51;6.67;;;1.83;;
13720;SDS011;6932;51.438;5.470;2022-11-22T08:01:17;6.70;;;2.20;;
13720;SDS011;6932;51.438;5.470;2022-11-22T08:03:44;6.80;;;1.80;;
13720;SDS011;6932;51.438;5.470;2022-11-22T08:06:11;7.77;;;1.87;;
13720;SDS011;6932;51.438;5.470;2022-11-22T08:08:38;4.53;;;1.80;;
13720;SDS011;6932;51.438;5.470;2022-11-22T08:11:05;7.70;;;2.03;;
13720;SDS011;6932;51.438;5.470;2022-11-22T08:13:31;4.33;;;1.40;;
13720;SDS011;6932;51.438;5.470;2022-11-22T08:16:04;5.70;;;2.00;;
13720;SDS011;6932;51.438;5.470;2022-11-22T08:18:47;5.20;;;1.63;;
13720;SDS011;6932;51.438;5.470;2022-11-22T08:21:14;3.83;;;1.60;;
13720;SDS011;6932;51.438;5.470;2022-11-22T08:23:44;4.00;;;1.50;;
13720;SDS011;6932;51.438;5.470;2022-11-22T08:26:18;5.83;;;1.70;;
13720;SDS011;6932;51.438;5.470;2022-11-22T08:28:47;6.60;;;1.80;;
13720;SDS011;6932;51.438;5.470;2022-11-22T08:31:20;4.80;;;1.77;;
13720;SDS011;6932;51.438;5.470;2022-11-22T08:33:47;5.37;;;1.67;;
13720;SDS011;6932;51.438;5.470;2022-11-22T08:36:17;5.23;;;1.53;;
13720;SDS011;6932;51.438;5.470;2022-11-22T08:38:53;6.13;;;2.00;;
13720;SDS011;6932;51.438;5.470;2022-11-22T08:41:19;4.13;;;1.60;;
13720;SDS011;6932;51.438;5.470;2022-11-22T08:43:49;4.63;;;1.60;;
13720;SDS011;6932;51.438;5.470;2022-11-22T08:46:16;4.83;;;1.60;;
13720;SDS011;6932;51.438;5.470;2022-11-22T08:48:49;5.43;;;1.67;;
13720;SDS011;6932;51.438;5.470;2022-11-22T08:51:18;5.73;;;1.60;;
13720;SDS011;6932;51.438;5.470;2022-11-22T08:53:44;4.53;;;1.63;;
13720;SDS011;6932;51.438;5.470;2022-11-22T08:56:40;3.87;;;1.53;;
13720;SDS011;6932;51.438;5.470;2022-11-22T08:59:13;3.60;;;1.67;;
13720;SDS011;6932;51.438;5.470;2022-11-22T09:01:45;5.17;;;1.60;;
13720;SDS011;6932;51.438;5.470;2022-11-22T09:04:37;4.60;;;1.50;;
13720;SDS011;6932;51.438;5.470;2022-11-22T09:07:16;4.27;;;1.70;;
13720;SDS011;6932;51.438;5.470;2022-11-22T09:10:02;3.73;;;1.80;;
13720;SDS011;6932;51.438;5.470;2022-11-22T09:16:27;4.63;;;1.80;;
13720;SDS011;6932;51.438;5.470;2022-11-22T09:19:06;6.77;;;1.80;;
13720;SDS011;6932;51.438;5.470;2022-11-22T09:24:46;4.30;;;1.47;;
13720;SDS011;6932;51.438;5.470;2022-11-22T09:27:27;4.07;;;1.50;;
13720;SDS011;6932;51.438;5.470;2022-11-22T09:30:36;3.90;;;1.50;;
13720;SDS011;6932;51.438;5.470;2022-11-22T09:33:15;3.93;;;1.60;;
13720;SDS011;6932;51.438;5.470;2022-11-22T09:35:43;5.83;;;1.70;;
13720;SDS011;6932;51.438;5.470;2022-11-22T09:38:12;5.20;;;1.63;;
13720;SDS011;6932;51.438;5.470;2022-11-22T09:40:38;2.63;;;1.37;;
13720;SDS011;6932;51.438;5.470;2022-11-22T09:43:15;5.43;;;1.73;;
13720;SDS011;6932;51.438;5.470;2022-11-22T09:46:24;4.23;;;1.50;;
13720;SDS011;6932;51.438;5.470;2022-11-22T09:49:27;5.60;;;1.40;;
13720;SDS011;6932;51.438;5.470;2022-11-22T09:52:29;3.50;;;1.43;;
13720;SDS011;6932;51.438;5.470;2022-11-22T09:55:08;6.43;;;1.80;;
13720;SDS011;6932;51.438;5.470;2022-11-22T10:01:06;3.50;;;1.57;;
13720;SDS011;6932;51.438;5.470;2022-11-22T10:04:14;2.60;;;1.40;;
13720;SDS011;6932;51.438;5.470;2022-11-22T10:18:10;3.97;;;1.60;;
13720;SDS011;6932;51.438;5.470;2022-11-22T10:21:00;3.63;;;1.47;;
13720;SDS011;6932;51.438;5.470;2022-11-22T10:23:26;2.53;;;1.20;;
13720;SDS011;6932;51.438;5.470;2022-11-22T10:25:55;8.40;;;1.97;;
13720;SDS011;6932;51.438;5.470;2022-11-22T10:31:42;2.83;;;1.30;;
13720;SDS011;6932;51.438;5.470;2022-11-22T10:38:02;2.90;;;1.30;;
13720;SDS011;6932;51.438;5.470;2022-11-22T10:40:57;4.37;;;1.60;;
13720;SDS011;6932;51.438;5.470;2022-11-22T10:50:19;2.03;;;1.10;;
13720;SDS011;6932;51.438;5.470;2022-11-22T10:59:17;2.13;;;1.07;;
13720;SDS011;6932;51.438;5.470;2022-11-22T11:05:11;2.03;;;1.00;;
13720;SDS011;6932;51.438;5.470;2022-11-22T11:07:47;1.40;;;1.00;;
13720;SDS011;6932;51.438;5.470;2022-11-22T11:10:22;2.53;;;1.27;;
13720;SDS011;6932;51.438;5.470;2022-11-22T11:13:01;2.73;;;1.10;;
13720;SDS011;6932;51.438;5.470;2022-11-22T11:15:42;2.30;;;1.20;;
13720;SDS011;6932;51.438;5.470;2022-11-22T11:18:16;1.43;;;0.90;;
13720;SDS011;6932;51.438;5.470;2022-11-22T11:20:54;2.33;;;1.00;;
13720;SDS011;6932;51.438;5.470;2022-11-22T11:23:20;1.87;;;1.00;;
13720;SDS011;6932;51.438;5.470;2022-11-22T11:25:47;1.37;;;1.10;;
13720;SDS011;6932;51.438;5.470;2022-11-22T11:30:54;0.93;;;0.80;;
13720;SDS011;6932;51.438;5.470;2022-11-22T11:33:31;1.67;;;0.97;;
13720;SDS011;6932;51.438;5.470;2022-11-22T11:36:05;1.33;;;1.00;;
13720;SDS011;6932;51.438;5.470;2022-11-22T11:41:17;1.93;;;0.90;;
13720;SDS011;6932;51.438;5.470;2022-11-22T11:43:55;2.00;;;0.80;;
13720;SDS011;6932;51.438;5.470;2022-11-22T11:46:24;1.20;;;0.90;;
13720;SDS011;6932;51.438;5.470;2022-11-22T11:49:08;2.17;;;1.03;;
13720;SDS011;6932;51.438;5.470;2022-11-22T11:51:43;1.57;;;0.87;;
13720;SDS011;6932;51.438;5.470;2022-11-22T11:54:17;2.60;;;1.10;;
13720;SDS011;6932;51.438;5.470;2022-11-22T11:57:41;0.83;;;0.70;;
13720;SDS011;6932;51.438;5.470;2022-11-22T12:00:17;1.77;;;0.97;;
13720;SDS011;6932;51.438;5.470;2022-11-22T12:03:01;1.23;;;0.80;;
13720;SDS011;6932;51.438;5.470;2022-11-22T12:05:36;0.80;;;0.80;;
13720;SDS011;6932;51.438;5.470;2022-11-22T12:08:09;1.77;;;0.90;;
13720;SDS011;6932;51.438;5.470;2022-11-22T12:10:56;2.23;;;1.07;;
13720;SDS011;6932;51.438;5.470;2022-11-22T12:13:42;0.80;;;0.80;;
13720;SDS011;6932;51.438;5.470;2022-11-22T12:16:17;1.83;;;0.80;;
13720;SDS011;6932;51.438;5.470;2022-11-22T12:22:01;1.17;;;0.70;;
13720;SDS011;6932;51.438;5.470;2022-11-22T12:27:52;0.87;;;0.53;;
13720;SDS011;6932;51.438;5.470;2022-11-22T12:30:22;2.73;;;0.70;;
13720;SDS011;6932;51.438;5.470;2022-11-22T12:32:51;1.73;;;0.70;;
13720;SDS011;6932;51.438;5.470;2022-11-22T12:35:40;0.80;;;0.50;;
13720;SDS011;6932;51.438;5.470;2022-11-22T12:38:24;1.43;;;0.67;;
13720;SDS011;6932;51.438;5.470;2022-11-22T12:41:03;0.87;;;0.70;;
13720;SDS011;6932;51.438;5.470;2022-11-22T12:43:47;1.00;;;0.80;;
13720;SDS011;6932;51.438;5.470;2022-11-22T12:46:26;1.63;;;0.73;;
13720;SDS011;6932;51.438;5.470;2022-11-22T12:49:05;1.20;;;1.00;;
13720;SDS011;6932;51.438;5.470;2022-11-22T12:52:03;1.23;;;0.80;;
13720;SDS011;6932;51.438;5.470;2022-11-22T13:00:45;0.93;;;0.70;;
13720;SDS011;6932;51.438;5.470;2022-11-22T13:03:30;1.23;;;0.60;;
13720;SDS011;6932;51.438;5.470;2022-11-22T13:06:06;0.80;;;0.50;;
13720;SDS011;6932;51.438;5.470;2022-11-22T13:11:56;3.07;;;0.80;;
13720;SDS011;6932;51.438;5.470;2022-11-22T13:14:47;0.73;;;0.57;;
13720;SDS011;6932;51.438;5.470;2022-11-22T13:17:20;1.43;;;0.70;;
13720;SDS011;6932;51.438;5.470;2022-11-22T13:25:35;1.53;;;0.50;;
13720;SDS011;6932;51.438;5.470;2022-11-22T13:28:36;1.57;;;0.70;;
13720;SDS011;6932;51.438;5.470;2022-11-22T13:31:05;2.10;;;0.80;;
13720;SDS011;6932;51.438;5.470;2022-11-22T13:33:34;0.87;;;0.60;;
13720;SDS011;6932;51.438;5.470;2022-11-22T13:38:54;2.00;;;0.60;;
13720;SDS011;6932;51.438;5.470;2022-11-22T13:46:58;1.50;;;0.70;;
13720;SDS011;6932;51.438;5.470;2022-11-22T14:02:42;1.07;;;0.90;;
13720;SDS011;6932;51.438;5.470;2022-11-22T14:07:57;1.10;;;0.60;;
13720;SDS011;6932;51.438;5.470;2022-11-22T14:19:07;1.17;;;0.70;;
13720;SDS011;6932;51.438;5.470;2022-11-22T14:22:16;0.80;;;0.70;;
13720;SDS011;6932;51.438;5.470;2022-11-22T14:24:56;0.50;;;0.50;;
13720;SDS011;6932;51.438;5.470;2022-11-22T14:33:19;0.87;;;0.70;;
13720;SDS011;6932;51.438;5.470;2022-11-22T14:38:40;1.50;;;0.80;;
13720;SDS011;6932;51.438;5.470;2022-11-22T14:46:54;1.00;;;0.80;;
13720;SDS011;6932;51.438;5.470;2022-11-22T14:49:41;1.50;;;0.63;;
13720;SDS011;6932;51.438;5.470;2022-11-22T14:52:37;1.60;;;0.60;;
13720;SDS011;6932;51.438;5.470;2022-11-22T14:55:30;1.73;;;0.60;;
13720;SDS011;6932;51.438;5.470;2022-11-22T14:58:11;0.80;;;0.70;;
13720;SDS011;6932;51.438;5.470;2022-11-22T15:04:42;1.70;;;0.80;;
13720;SDS011;6932;51.438;5.470;2022-11-22T15:15:34;0.80;;;0.70;;
13720;SDS011;6932;51.438;5.470;2022-11-22T15:18:38;1.00;;;0.70;;
13720;SDS011;6932;51.438;5.470;2022-11-22T15:21:23;0.40;;;0.40;;
13720;SDS011;6932;51.438;5.470;2022-11-22T15:23:58;1.07;;;0.60;;
13720;SDS011;6932;51.438;5.470;2022-11-22T15:26:58;1.10;;;0.80;;
13720;SDS011;6932;51.438;5.470;2022-11-22T15:29:27;0.90;;;0.70;;
13720;SDS011;6932;51.438;5.470;2022-11-22T15:32:06;1.30;;;1.03;;
13720;SDS011;6932;51.438;5.470;2022-11-22T15:34:44;3.03;;;1.27;;
13720;SDS011;6932;51.438;5.470;2022-11-22T15:40:34;1.10;;;1.00;;
13720;SDS011;6932;51.438;5.470;2022-11-22T15:43:17;2.10;;;1.43;;
13720;SDS011;6932;51.438;5.470;2022-11-22T15:45:58;2.23;;;1.30;;
13720;SDS011;6932;51.438;5.470;2022-11-22T15:48:52;2.70;;;1.67;;
13720;SDS011;6932;51.438;5.470;2022-11-22T15:51:34;2.93;;;1.50;;
13720;SDS011;6932;51.438;5.470;2022-11-22T15:54:51;1.70;;;1.43;;
13720;SDS011;6932;51.438;5.470;2022-11-22T15:57:33;2.53;;;2.00;;
13720;SDS011;6932;51.438;5.470;2022-11-22T16:00:23;1.57;;;1.33;;
13720;SDS011;6932;51.438;5.470;2022-11-22T16:02:56;1.73;;;1.30;;
13720;SDS011;6932;51.438;5.470;2022-11-22T16:05:35;1.90;;;1.40;;
13720;SDS011;6932;51.438;5.470;2022-11-22T16:08:12;1.70;;;1.40;;
13720;SDS011;6932;51.438;5.470;2022-11-22T16:10:50;1.40;;;1.20;;
13720;SDS011;6932;51.438;5.470;2022-11-22T16:13:33;1.40;;;1.30;;
13720;SDS011;6932;51.438;5.470;2022-11-22T16:21:57;2.00;;;1.60;;
13720;SDS011;6932;51.438;5.470;2022-11-22T16:24:31;2.90;;;1.70;;
13720;SDS011;6932;51.438;5.470;2022-11-22T16:27:11;3.23;;;2.00;;
13720;SDS011;6932;51.438;5.470;2022-11-22T16:29:50;3.17;;;1.60;;
13720;SDS011;6932;51.438;5.470;2022-11-22T16:32:21;1.93;;;1.60;;
13720;SDS011;6932;51.438;5.470;2022-11-22T16:34:50;2.63;;;1.77;;
13720;SDS011;6932;51.438;5.470;2022-11-22T16:37:34;2.90;;;1.53;;
13720;SDS011;6932;51.438;5.470;2022-11-22T16:40:09;2.30;;;1.60;;
13720;SDS011;6932;51.438;5.470;2022-11-22T16:43:22;2.10;;;1.60;;
13720;SDS011;6932;51.438;5.470;2022-11-22T16:46:18;1.70;;;1.30;;
13720;SDS011;6932;51.438;5.470;2022-11-22T16:48:52;2.03;;;1.50;;
13720;SDS011;6932;51.438;5.470;2022-11-22T16:51:30;2.20;;;1.50;;
13720;SDS011;6932;51.438;5.470;2022-11-22T16:54:14;3.03;;;1.70;;
13720;SDS011;6932;51.438;5.470;2022-11-22T16:57:40;2.80;;;1.43;;
13720;SDS011;6932;51.438;5.470;2022-11-22T17:00:23;2.63;;;1.53;;
13720;SDS011;6932;51.438;5.470;2022-11-22T17:03:27;2.90;;;1.80;;
13720;SDS011;6932;51.438;5.470;2022-11-22T17:06:40;6.27;;;3.97;;
13720;SDS011;6932;51.438;5.470;2022-11-22T17:09:53;8.50;;;3.93;;
13720;SDS011;6932;51.438;5.470;2022-11-22T17:12:59;3.43;;;1.73;;
13720;SDS011;6932;51.438;5.470;2022-11-22T17:16:07;2.77;;;1.67;;
13720;SDS011;6932;51.438;5.470;2022-11-22T17:30:16;3.23;;;1.97;;
13720;SDS011;6932;51.438;5.470;2022-11-22T17:33:58;4.27;;;1.73;;
13720;SDS011;6932;51.438;5.470;2022-11-22T17:37:24;5.20;;;2.60;;
13720;SDS011;6932;51.438;5.470;2022-11-22T17:40:14;3.80;;;2.00;;
13720;SDS011;6932;51.438;5.470;2022-11-22T17:43:05;4.50;;;2.23;;
13720;SDS011;6932;51.438;5.470;2022-11-22T17:45:43;3.10;;;1.70;;
13720;SDS011;6932;51.438;5.470;2022-11-22T17:48:30;4.03;;;1.93;;
13720;SDS011;6932;51.438;5.470;2022-11-22T17:51:30;3.73;;;2.00;;
13720;SDS011;6932;51.438;5.470;2022-11-22T17:54:05;4.30;;;1.90;;
13720;SDS011;6932;51.438;5.470;2022-11-22T17:56:34;3.80;;;2.00;;
13720;SDS011;6932;51.438;5.470;2022-11-22T17:59:09;4.63;;;2.10;;
13720;SDS011;6932;51.438;5.470;2022-11-22T18:01:37;3.27;;;1.80;;
13720;SDS011;6932;51.438;5.470;2022-11-22T18:04:10;4.67;;;2.00;;
13720;SDS011;6932;51.438;5.470;2022-11-22T18:06:41;4.63;;;2.00;;
13720;SDS011;6932;51.438;5.470;2022-11-22T18:09:31;4.60;;;2.10;;
13720;SDS011;6932;51.438;5.470;2022-11-22T18:11:58;6.13;;;2.20;;
13720;SDS011;6932;51.438;5.470;2022-11-22T18:14:27;5.30;;;2.20;;
13720;SDS011;6932;51.438;5.470;2022-11-22T18:16:58;4.50;;;2.13;;
13720;SDS011;6932;51.438;5.470;2022-11-22T18:19:38;3.53;;;1.90;;
13720;SDS011;6932;51.438;5.470;2022-11-22T18:22:15;5.00;;;2.07;;
13720;SDS011;6932;51.438;5.470;2022-11-22T18:25:12;4.03;;;1.97;;